createdAt,value
2022-09-15T00:00:13.477Z,74.3
2022-09-15T00:01:29.405Z,74.3
2022-09-15T00:02:44.870Z,74.3
2022-09-15T00:04:01.055Z,74.3
2022-09-15T00:05:17.246Z,74.4
2022-09-15T00:06:33.428Z,74.4
2022-09-15T00:07:49.344Z,74.3
2022-09-15T00:09:05.796Z,74.4
2022-09-15T00:10:21.988Z,74.3
2022-09-15T00:11:38.179Z,74.3
2022-09-15T00:12:54.370Z,74.3
2022-09-15T00:14:10.552Z,74.3
2022-09-15T00:15:26.744Z,74.3
2022-09-15T00:16:42.665Z,74.3
2022-09-15T00:17:59.108Z,74.3
2022-09-15T00:19:14.314Z,74.3
2022-09-15T00:20:30.247Z,74.3
2022-09-15T00:21:46.439Z,74.3
2022-09-15T00:23:02.878Z,74.4
2022-09-15T00:24:18.805Z,74.3
2022-09-15T00:25:35.254Z,74.3
2022-09-15T00:26:51.444Z,74.4
2022-09-15T00:28:07.638Z,74.3
2022-09-15T00:29:23.818Z,74.4
2022-09-15T00:30:40.001Z,74.4
2022-09-15T00:31:55.916Z,74.4
2022-09-15T00:33:12.123Z,74.4
2022-09-15T00:34:28.572Z,74.3
2022-09-15T00:35:43.761Z,74.3
2022-09-15T00:36:59.957Z,74.4
2022-09-15T00:38:16.147Z,74.4
2022-09-15T00:39:32.336Z,74.5
2022-09-15T00:40:48.511Z,74.5
2022-09-15T00:42:04.711Z,74.5
2022-09-15T00:43:20.900Z,74.5
2022-09-15T00:44:37.089Z,74.5
2022-09-15T00:45:53.008Z,74.5
2022-09-15T00:47:09.448Z,74.4
2022-09-15T00:48:25.646Z,74.5
2022-09-15T00:49:41.829Z,74.5
2022-09-15T00:50:58.012Z,74.5
2022-09-15T00:52:12.952Z,74.5
2022-09-15T00:53:29.401Z,74.5
2022-09-15T00:54:45.333Z,74.5
2022-09-15T00:56:01.787Z,74.5
2022-09-15T00:57:17.978Z,74.5
2022-09-15T00:58:33.882Z,74.5
2022-09-15T00:59:50.356Z,74.5
2022-09-15T01:01:06.530Z,74.4
2022-09-15T01:02:22.441Z,74.5
2022-09-15T01:03:38.901Z,74.6
2022-09-15T01:04:54.813Z,74.6
2022-09-15T01:06:11.293Z,74.6
2022-09-15T01:07:27.200Z,74.7
2022-09-15T01:08:42.671Z,74.7
2022-09-15T01:09:58.862Z,74.7
2022-09-15T01:11:14.766Z,74.7
2022-09-15T01:12:31.235Z,74.7
2022-09-15T01:13:47.427Z,74.7
2022-09-15T01:15:03.335Z,74.7
2022-09-15T01:16:18.816Z,74.7
2022-09-15T01:17:34.723Z,74.6
2022-09-15T01:18:51.188Z,74.7
2022-09-15T01:20:07.117Z,74.7
2022-09-15T01:21:23.568Z,74.7
2022-09-15T01:22:39.759Z,74.7
2022-09-15T01:23:55.670Z,74.7
2022-09-15T01:25:11.859Z,74.8
2022-09-15T01:26:28.312Z,74.8
2022-09-15T01:27:44.517Z,74.9
2022-09-15T01:29:00.689Z,74.9
2022-09-15T01:30:16.885Z,74.8
2022-09-15T01:31:33.075Z,74.8
2022-09-15T01:32:47.998Z,74.9
2022-09-15T01:34:04.469Z,74.9
2022-09-15T01:35:20.370Z,74.8
2022-09-15T01:36:36.828Z,74.9
2022-09-15T01:37:52.749Z,74.8
2022-09-15T01:39:09.205Z,74.9
2022-09-15T01:41:41.588Z,74.8
2022-09-15T01:42:57.492Z,74.8
2022-09-15T01:44:13.956Z,74.9
2022-09-15T01:45:30.157Z,74.8
2022-09-15T01:46:46.337Z,74.8
2022-09-15T01:48:02.237Z,74.8
2022-09-15T01:49:17.732Z,74.8
2022-09-15T01:50:33.921Z,74.8
2022-09-15T01:51:50.090Z,74.9
2022-09-15T01:53:06.281Z,74.9
2022-09-15T01:54:22.478Z,75
2022-09-15T01:55:38.662Z,75.1
2022-09-15T01:56:54.856Z,75
2022-09-15T01:58:11.030Z,75
2022-09-15T01:59:27.228Z,75
2022-09-15T02:00:43.414Z,75
2022-09-15T02:01:59.325Z,75
2022-09-15T02:03:15.497Z,75
2022-09-15T02:04:31.972Z,74.9
2022-09-15T02:05:47.177Z,75
2022-09-15T02:07:03.360Z,74.9
2022-09-15T02:08:19.544Z,75
2022-09-15T02:09:35.748Z,75
2022-09-15T02:10:51.633Z,75
2022-09-15T02:12:07.825Z,75
2022-09-15T02:13:24.019Z,75
2022-09-15T02:14:40.208Z,74.9
2022-09-15T02:15:56.672Z,75
2022-09-15T02:17:12.861Z,75
2022-09-15T02:18:28.754Z,75
2022-09-15T02:19:45.234Z,75
2022-09-15T02:21:01.437Z,75
2022-09-15T02:22:16.638Z,75
2022-09-15T02:23:32.826Z,75
2022-09-15T02:24:48.997Z,75
2022-09-15T02:26:05.188Z,75
2022-09-15T02:27:21.372Z,75.1
2022-09-15T02:28:37.274Z,75.2
2022-09-15T02:29:53.764Z,75.1
2022-09-15T02:31:09.642Z,75.1
2022-09-15T02:32:26.136Z,75.2
2022-09-15T02:33:42.017Z,75.1
2022-09-15T02:34:58.498Z,75.1
2022-09-15T02:36:14.688Z,75.1
2022-09-15T02:37:30.880Z,75.2
2022-09-15T02:38:46.078Z,75.2
2022-09-15T02:40:01.974Z,75.2
2022-09-15T02:41:18.158Z,75.2
2022-09-15T02:42:34.651Z,75.3
2022-09-15T02:43:50.836Z,75.3
2022-09-15T02:45:06.719Z,75.2
2022-09-15T02:46:23.210Z,75.2
2022-09-15T02:47:39.401Z,75.3
2022-09-15T02:48:55.575Z,75.3
2022-09-15T02:50:11.768Z,75.3
2022-09-15T02:51:27.948Z,75.4
2022-09-15T02:52:43.838Z,75.4
2022-09-15T02:54:00.045Z,75.3
2022-09-15T02:55:15.526Z,75.4
2022-09-15T02:56:31.731Z,75.4
2022-09-15T02:57:47.603Z,75.3
2022-09-15T02:59:04.094Z,75.3
2022-09-15T03:00:19.980Z,75.3
2022-09-15T03:01:36.167Z,75.4
2022-09-15T03:02:52.659Z,75.4
2022-09-15T03:04:08.555Z,75.4
2022-09-15T03:05:25.040Z,75.4
2022-09-15T03:06:41.227Z,75.4
2022-09-15T03:07:57.415Z,75.5
2022-09-15T03:09:13.301Z,75.4
2022-09-15T03:10:29.788Z,75.4
2022-09-15T03:11:44.684Z,75.4
2022-09-15T03:13:01.180Z,75.4
2022-09-15T03:14:17.359Z,75.5
2022-09-15T03:15:33.251Z,75.5
2022-09-15T03:16:49.745Z,75.5
2022-09-15T03:18:05.925Z,75.5
2022-09-15T03:19:21.819Z,75.4
2022-09-15T03:20:38.305Z,75.4
2022-09-15T03:21:54.498Z,75.4
2022-09-15T03:23:10.674Z,75.4
2022-09-15T03:24:26.869Z,75.5
2022-09-15T03:25:43.053Z,75.4
2022-09-15T03:26:58.942Z,75.5
2022-09-15T03:28:14.435Z,75.5
2022-09-15T03:29:30.632Z,75.6
2022-09-15T03:30:46.512Z,75.6
2022-09-15T03:32:02.996Z,75.6
2022-09-15T03:33:19.182Z,75.6
2022-09-15T03:34:35.072Z,75.5
2022-09-15T03:35:51.565Z,75.5
2022-09-15T03:37:07.754Z,75.5
2022-09-15T03:38:23.932Z,75.6
2022-09-15T03:39:39.826Z,75.5
2022-09-15T03:40:56.320Z,75.6
2022-09-15T03:42:12.197Z,75.5
2022-09-15T03:43:28.391Z,75.6
2022-09-15T03:44:43.590Z,75.6
2022-09-15T03:46:00.073Z,75.6
2022-09-15T03:47:16.260Z,75.6
2022-09-15T03:48:32.451Z,75.5
2022-09-15T03:49:48.333Z,75.5
2022-09-15T03:51:04.834Z,75.5
2022-09-15T03:52:21.013Z,75.5
2022-09-15T03:53:36.898Z,75.6
2022-09-15T03:54:53.401Z,75.5
2022-09-15T03:56:09.572Z,75.5
2022-09-15T03:57:25.776Z,75.5
2022-09-15T03:58:41.954Z,75.5
2022-09-15T03:59:57.827Z,75.5
2022-09-15T04:01:13.354Z,75.5
2022-09-15T04:02:29.535Z,75.4
2022-09-15T04:03:45.726Z,75.4
2022-09-15T04:05:01.599Z,75.4
2022-09-15T04:06:18.095Z,75.5
2022-09-15T04:07:34.284Z,75.5
2022-09-15T04:08:50.163Z,75.5
2022-09-15T04:10:06.657Z,75.6
2022-09-15T04:11:22.848Z,75.6
2022-09-15T04:12:38.730Z,75.8
2022-09-15T04:13:55.225Z,75.7
2022-09-15T04:15:11.412Z,75.8
2022-09-15T04:16:27.590Z,75.9
2022-09-15T04:17:42.807Z,76
2022-09-15T04:18:58.994Z,76
2022-09-15T04:20:14.865Z,76.2
2022-09-15T04:21:31.357Z,76.1
2022-09-15T04:22:47.549Z,76.1
2022-09-15T04:24:03.727Z,76.1
2022-09-15T04:25:19.927Z,76.2
2022-09-15T04:26:36.119Z,76.1
2022-09-15T04:27:52.301Z,76.1
2022-09-15T04:29:08.489Z,76.1
2022-09-15T04:30:24.679Z,76.2
2022-09-15T04:31:40.874Z,76.1
2022-09-15T04:32:57.062Z,76.1
2022-09-15T04:34:12.266Z,76.2
2022-09-15T04:36:44.638Z,76.2
2022-09-15T04:38:00.826Z,76.1
2022-09-15T04:39:17.008Z,76.1
2022-09-15T04:40:33.196Z,76.1
2022-09-15T04:41:49.389Z,76.1
2022-09-15T04:43:05.271Z,76.1
2022-09-15T04:44:21.763Z,76.1
2022-09-15T04:45:37.958Z,76.1
2022-09-15T04:46:54.152Z,76
2022-09-15T04:48:10.340Z,76
2022-09-15T04:49:26.519Z,75.9
2022-09-15T04:50:41.725Z,76
2022-09-15T04:51:57.911Z,76
2022-09-15T04:53:14.000Z,75.9
2022-09-15T04:54:30.292Z,76
2022-09-15T04:55:46.480Z,76
2022-09-15T04:57:02.671Z,75.9
2022-09-15T04:58:18.871Z,75.9
2022-09-15T04:59:35.047Z,75.9
2022-09-15T05:00:51.251Z,75.9
2022-09-15T05:03:23.624Z,75.9
2022-09-15T05:04:39.815Z,75.8
2022-09-15T05:05:55.675Z,75.9
2022-09-15T05:07:10.873Z,75.9
2022-09-15T05:08:27.395Z,76
2022-09-15T05:09:43.572Z,75.9
2022-09-15T05:10:59.773Z,76
2022-09-15T05:12:15.956Z,75.9
2022-09-15T05:13:31.825Z,75.9
2022-09-15T05:14:48.336Z,76
2022-09-15T05:16:04.532Z,75.9
2022-09-15T05:17:20.383Z,75.9
2022-09-15T05:18:36.901Z,75.8
2022-09-15T05:19:53.099Z,75.8
2022-09-15T05:21:08.957Z,75.9
2022-09-15T05:22:25.480Z,75.8
2022-09-15T05:23:40.672Z,75.9
2022-09-15T05:24:56.545Z,75.9
2022-09-15T05:26:13.048Z,75.8
2022-09-15T05:27:29.251Z,75.9
2022-09-15T05:28:45.097Z,75.9
2022-09-15T05:30:01.629Z,75.8
2022-09-15T05:31:16.494Z,75.8
2022-09-15T05:32:33.016Z,75.8
2022-09-15T05:33:49.218Z,75.8
2022-09-15T05:35:05.396Z,75.7
2022-09-15T05:36:21.256Z,75.7
2022-09-15T05:37:37.435Z,75.7
2022-09-15T05:38:53.958Z,75.7
2022-09-15T05:40:10.150Z,75.5
2022-09-15T05:41:26.016Z,75.6
2022-09-15T05:42:42.532Z,75.6
2022-09-15T05:43:58.712Z,75.6
2022-09-15T05:45:14.572Z,75.6
2022-09-15T05:46:30.756Z,75.5
2022-09-15T05:47:45.975Z,75.5
2022-09-15T05:49:02.504Z,75.7
2022-09-15T05:50:18.685Z,75.7
2022-09-15T05:51:34.865Z,75.7
2022-09-15T05:52:50.718Z,75.7
2022-09-15T05:54:07.196Z,75.7
2022-09-15T05:55:23.434Z,75.6
2022-09-15T05:56:39.629Z,75.6
2022-09-15T05:57:55.821Z,75.5
2022-09-15T05:59:11.955Z,75.5
2022-09-15T06:00:28.187Z,75.6
2022-09-15T06:01:44.375Z,75.6
2022-09-15T06:03:00.519Z,75.5
2022-09-15T06:04:15.779Z,75.5
2022-09-15T06:05:31.958Z,75.6
2022-09-15T06:06:48.095Z,75.5
2022-09-15T06:08:04.368Z,75.6
2022-09-15T06:09:20.538Z,75.5
2022-09-15T06:10:36.715Z,75.4
2022-09-15T06:11:52.915Z,75.4
2022-09-15T06:13:09.042Z,75.4
2022-09-15T06:14:25.226Z,75.3
2022-09-15T06:15:41.478Z,75.3
2022-09-15T06:16:57.672Z,75.2
2022-09-15T06:18:13.855Z,75.1
2022-09-15T06:19:29.992Z,75.2
2022-09-15T06:20:45.253Z,75.3
2022-09-15T06:22:01.384Z,75.3
2022-09-15T06:23:17.629Z,75.4
2022-09-15T06:24:33.825Z,75.3
2022-09-15T06:25:50.015Z,75.3
2022-09-15T06:27:06.198Z,75.3
2022-09-15T06:28:22.311Z,75.3
2022-09-15T06:29:38.582Z,75.2
2022-09-15T06:30:54.757Z,75.2
2022-09-15T06:32:10.950Z,75.1
2022-09-15T06:33:27.071Z,74.9
2022-09-15T06:34:43.335Z,74.9
2022-09-15T06:35:59.513Z,74.8
2022-09-15T06:37:14.656Z,74.8
2022-09-15T06:38:30.913Z,74.7
2022-09-15T06:39:47.112Z,74.7
2022-09-15T06:41:03.218Z,74.5
2022-09-15T06:42:19.485Z,74.5
2022-09-15T06:43:35.681Z,74.5
2022-09-15T06:44:51.799Z,74.4
2022-09-15T06:46:08.046Z,74.4
2022-09-15T06:47:24.242Z,74.3
2022-09-15T06:48:40.351Z,74.3
2022-09-15T06:49:56.626Z,74.3
2022-09-15T06:51:12.747Z,74.3
2022-09-15T06:52:28.927Z,74.3
2022-09-15T06:53:44.211Z,74.3
2022-09-15T06:55:00.398Z,74.2
2022-09-15T06:56:16.581Z,74.1
2022-09-15T06:57:32.770Z,74.1
2022-09-15T06:58:48.892Z,74
2022-09-15T07:00:05.071Z,74
2022-09-15T07:01:21.265Z,74
2022-09-15T07:02:37.535Z,73.9
2022-09-15T07:03:53.718Z,73.9
2022-09-15T07:05:09.905Z,74
2022-09-15T07:06:26.017Z,74
2022-09-15T07:07:42.199Z,73.9
2022-09-15T07:08:58.474Z,73.8
2022-09-15T07:10:13.671Z,73.8
2022-09-15T07:11:29.865Z,73.8
2022-09-15T07:12:46.058Z,73.8
2022-09-15T07:14:02.248Z,73.8
2022-09-15T07:15:18.442Z,73.7
2022-09-15T07:16:34.547Z,73.7
2022-09-15T07:17:50.820Z,73.7
2022-09-15T07:19:06.997Z,73.8
2022-09-15T07:20:23.201Z,73.7
2022-09-15T07:21:39.377Z,73.8
2022-09-15T07:22:55.498Z,73.5
2022-09-15T07:24:11.755Z,73.7
2022-09-15T07:25:27.942Z,73.7
2022-09-15T07:26:43.152Z,73.7
2022-09-15T07:27:59.341Z,73.5
2022-09-15T07:29:15.543Z,73.3
2022-09-15T07:30:31.642Z,73.3
2022-09-15T07:31:47.917Z,73.3
2022-09-15T07:33:04.091Z,73.3
2022-09-15T07:34:20.202Z,73.2
2022-09-15T07:35:36.481Z,73.3
2022-09-15T07:36:52.677Z,72.8
2022-09-15T07:38:08.767Z,72.9
2022-09-15T07:39:24.969Z,72.8
2022-09-15T07:40:41.237Z,72.8
2022-09-15T07:41:57.341Z,72.7
2022-09-15T07:43:12.638Z,72.8
2022-09-15T07:44:28.821Z,72.6
2022-09-15T07:45:44.924Z,72.6
2022-09-15T07:47:01.194Z,72.7
2022-09-15T07:48:17.297Z,72.7
2022-09-15T07:49:33.579Z,72.7
2022-09-15T07:50:49.777Z,72.7
2022-09-15T07:52:05.952Z,72.8
2022-09-15T07:53:22.153Z,72.7
2022-09-15T07:54:38.342Z,72.6
2022-09-15T07:55:54.523Z,72.7
2022-09-15T07:57:10.704Z,72.7
2022-09-15T07:58:26.905Z,72.7
2022-09-15T07:59:42.109Z,72.5
2022-09-15T08:00:58.296Z,72.6
2022-09-15T08:02:14.494Z,72.6
2022-09-15T08:03:30.666Z,72.6
2022-09-15T08:04:46.854Z,72.6
2022-09-15T08:06:03.052Z,72.4
2022-09-15T08:07:19.249Z,72.3
2022-09-15T08:08:35.439Z,72.5
2022-09-15T08:09:51.525Z,72.2
2022-09-15T08:11:07.800Z,72.2
2022-09-15T08:12:23.991Z,72.1
2022-09-15T08:13:40.093Z,72.2
2022-09-15T08:14:56.376Z,72
2022-09-15T08:16:11.499Z,72.1
2022-09-15T08:17:27.770Z,72
2022-09-15T08:18:43.972Z,72
2022-09-15T08:20:00.158Z,71.9
2022-09-15T08:21:16.348Z,71.8
2022-09-15T08:25:04.909Z,71.6
2022-09-15T08:26:21.015Z,71.7
2022-09-15T08:27:37.296Z,71.7
2022-09-15T08:28:53.394Z,71.8
2022-09-15T08:30:09.664Z,71.7
2022-09-15T08:31:25.757Z,71.7
2022-09-15T08:32:41.056Z,71.8
2022-09-15T08:33:57.250Z,71.8
2022-09-15T08:35:13.443Z,71.8
2022-09-15T08:36:29.630Z,71.9
2022-09-15T08:37:45.731Z,71.8
2022-09-15T08:39:01.916Z,71.8
2022-09-15T08:40:18.186Z,71.7
2022-09-15T08:41:34.296Z,71.7
2022-09-15T08:42:50.473Z,71.7
2022-09-15T08:44:06.762Z,71.6
2022-09-15T08:45:22.945Z,71.4
2022-09-15T08:46:39.045Z,71.5
2022-09-15T08:47:55.331Z,71.1
2022-09-15T08:49:10.539Z,71.1
2022-09-15T08:50:26.731Z,71.3
2022-09-15T08:51:42.809Z,71.3
2022-09-15T08:52:59.095Z,71.4
2022-09-15T08:54:15.293Z,71.4
2022-09-15T08:55:31.471Z,71.4
2022-09-15T08:56:47.665Z,71.4
2022-09-15T08:58:03.756Z,71.4
2022-09-15T08:59:20.039Z,71.3
2022-09-15T09:00:36.245Z,71.2
2022-09-15T09:01:52.328Z,71
2022-09-15T09:03:08.613Z,71
2022-09-15T09:04:24.802Z,71
2022-09-15T09:05:40.002Z,71
2022-09-15T09:06:56.194Z,71
2022-09-15T09:08:12.279Z,71
2022-09-15T09:09:28.586Z,71
2022-09-15T09:10:44.762Z,71
2022-09-15T09:12:00.959Z,71
2022-09-15T09:13:17.148Z,70.8
2022-09-15T09:14:33.339Z,70.8
2022-09-15T09:15:49.412Z,70.8
2022-09-15T09:17:05.705Z,70.8
2022-09-15T09:18:21.893Z,70.8
2022-09-15T09:19:37.993Z,70.8
2022-09-15T09:20:54.283Z,71
2022-09-15T09:22:09.376Z,71
2022-09-15T09:23:25.678Z,71
2022-09-15T09:24:41.761Z,71
2022-09-15T09:25:58.045Z,71
2022-09-15T09:27:14.250Z,70.9
2022-09-15T09:28:30.431Z,71
2022-09-15T09:29:46.523Z,71
2022-09-15T09:31:02.703Z,71
2022-09-15T09:32:18.895Z,71
2022-09-15T09:33:35.180Z,70.8
2022-09-15T09:34:51.381Z,70.7
2022-09-15T09:36:07.555Z,70.5
2022-09-15T09:37:23.761Z,70.7
2022-09-15T09:38:38.861Z,70.5
2022-09-15T09:39:55.040Z,70.5
2022-09-15T09:41:11.336Z,70.3
2022-09-15T09:42:27.520Z,70.2
2022-09-15T09:43:43.705Z,70.1
2022-09-15T09:44:59.900Z,70
2022-09-15T09:46:15.010Z,69.8
2022-09-15T09:47:31.196Z,69.9
2022-09-15T09:48:47.488Z,69.8
2022-09-15T09:50:03.577Z,69.9
2022-09-15T09:51:19.755Z,69.8
2022-09-15T09:52:36.061Z,69.6
2022-09-15T09:53:52.244Z,69.6
2022-09-15T09:55:08.441Z,69.5
2022-09-15T09:56:24.618Z,69.5
2022-09-15T09:57:40.808Z,69.6
2022-09-15T09:58:57.015Z,69.4
2022-09-15T10:00:13.093Z,69.2
2022-09-15T10:01:29.389Z,69.3
2022-09-15T10:02:44.477Z,69.3
2022-09-15T10:04:00.661Z,69.3
2022-09-15T10:05:16.975Z,68.9
2022-09-15T10:06:33.148Z,68.8
2022-09-15T10:07:49.336Z,68.7
2022-09-15T10:09:05.525Z,68.7
2022-09-15T10:10:21.611Z,68.6
2022-09-15T10:11:37.907Z,68.6
2022-09-15T10:12:53.992Z,68.9
2022-09-15T10:14:10.287Z,68.9
2022-09-15T10:15:26.487Z,68.7
2022-09-15T10:16:42.663Z,68.8
2022-09-15T10:17:58.745Z,68.6
2022-09-15T10:19:14.066Z,68.7
2022-09-15T10:20:30.251Z,68.6
2022-09-15T10:21:46.436Z,68.5
2022-09-15T10:23:02.622Z,68.5
2022-09-15T10:24:18.815Z,68.5
2022-09-15T10:25:35.012Z,68.6
2022-09-15T10:26:51.203Z,68.7
2022-09-15T10:28:07.389Z,68.9
2022-09-15T10:29:23.453Z,68.9
2022-09-15T10:31:55.951Z,68.8
2022-09-15T10:33:12.023Z,68.5
2022-09-15T10:34:28.340Z,68.6
2022-09-15T10:35:43.539Z,68.4
2022-09-15T10:36:59.718Z,68.2
2022-09-15T10:38:15.795Z,68.3
2022-09-15T10:39:32.097Z,68.3
2022-09-15T10:40:48.164Z,68.3
2022-09-15T10:42:04.360Z,68.1
2022-09-15T10:43:20.681Z,67.8
2022-09-15T10:44:36.853Z,67.2
2022-09-15T10:45:53.042Z,67.1
2022-09-15T10:47:09.242Z,66.9
2022-09-15T10:48:25.424Z,66.3
2022-09-15T10:49:41.609Z,66.4
2022-09-15T10:50:57.802Z,66.3
2022-09-15T10:52:13.003Z,65.8
2022-09-15T10:53:29.193Z,66.5
2022-09-15T10:54:45.383Z,67.1
2022-09-15T10:56:01.444Z,67.1
2022-09-15T10:57:17.772Z,66.1
2022-09-15T10:58:33.965Z,65.9
2022-09-15T10:59:50.153Z,65.1
2022-09-15T11:01:06.327Z,64.5
2022-09-15T11:02:22.521Z,64
2022-09-15T11:03:38.594Z,63.6
2022-09-15T11:04:54.899Z,63.3
2022-09-15T11:06:11.097Z,63.1
2022-09-15T11:07:27.148Z,63.2
2022-09-15T11:08:42.487Z,64.3
2022-09-15T11:09:58.677Z,65.6
2022-09-15T11:11:14.729Z,66.4
2022-09-15T11:12:31.060Z,66.9
2022-09-15T11:13:47.239Z,67.4
2022-09-15T11:15:03.434Z,67.6
2022-09-15T11:16:19.629Z,67.7
2022-09-15T11:17:35.672Z,67.7
2022-09-15T11:18:51.993Z,67.7
2022-09-15T11:20:08.046Z,67.7
2022-09-15T11:21:24.236Z,67.6
2022-09-15T11:22:40.570Z,67.6
2022-09-15T11:23:56.623Z,67.5
2022-09-15T11:25:11.958Z,67.4
2022-09-15T11:26:28.024Z,67.1
2022-09-15T11:27:44.327Z,67.1
2022-09-15T11:29:00.387Z,67.1
2022-09-15T11:30:16.720Z,67.1
2022-09-15T11:31:32.909Z,67
2022-09-15T11:32:49.091Z,67
2022-09-15T11:34:05.290Z,67.1
2022-09-15T11:35:21.470Z,67.2
2022-09-15T11:36:37.651Z,67.2
2022-09-15T11:37:53.840Z,66.9
2022-09-15T11:39:09.895Z,66.5
2022-09-15T11:40:26.216Z,65.9
2022-09-15T11:41:41.292Z,65.4
2022-09-15T11:42:57.626Z,65.5
2022-09-15T11:44:13.818Z,65.9
2022-09-15T11:45:29.864Z,65.2
2022-09-15T11:46:46.185Z,64.9
2022-09-15T11:48:02.376Z,65.2
2022-09-15T11:49:18.572Z,65.6
2022-09-15T11:50:34.763Z,65.9
2022-09-15T11:51:50.937Z,66.3
2022-09-15T11:53:07.143Z,66.6
2022-09-15T11:54:23.326Z,66.9
2022-09-15T11:55:39.510Z,67.1
2022-09-15T11:56:55.693Z,67.3
2022-09-15T11:58:10.897Z,67.5
2022-09-15T11:59:27.106Z,67.6
2022-09-15T12:00:43.283Z,67.6
2022-09-15T12:01:59.473Z,67.6
2022-09-15T12:03:15.534Z,67.6
2022-09-15T12:04:31.718Z,67.6
2022-09-15T12:05:48.035Z,67.7
2022-09-15T12:07:04.095Z,67.7
2022-09-15T12:08:20.425Z,67.6
2022-09-15T12:09:36.618Z,67.6
2022-09-15T12:10:52.804Z,67.6
2022-09-15T12:12:08.847Z,67.6
2022-09-15T12:13:25.031Z,67.6
2022-09-15T12:14:40.389Z,67.6
2022-09-15T12:15:56.580Z,67.6
2022-09-15T12:17:12.608Z,67.4
2022-09-15T12:18:28.815Z,67
2022-09-15T12:19:44.994Z,66.8
2022-09-15T12:21:01.333Z,66.7
2022-09-15T12:22:17.382Z,66.8
2022-09-15T12:23:33.559Z,66.9
2022-09-15T12:24:49.902Z,67.1
2022-09-15T12:26:06.077Z,67.1
2022-09-15T12:27:22.290Z,67.2
2022-09-15T12:28:38.462Z,67.4
2022-09-15T12:29:54.650Z,67.6
2022-09-15T12:31:09.847Z,67.7
2022-09-15T12:32:26.043Z,67.9
2022-09-15T12:33:42.225Z,67.9
2022-09-15T12:34:58.271Z,67.8
2022-09-15T12:36:14.606Z,67.7
2022-09-15T12:37:30.791Z,67.3
2022-09-15T12:38:46.843Z,66.3
2022-09-15T12:40:03.038Z,66
2022-09-15T12:41:19.374Z,66.5
2022-09-15T12:42:35.404Z,66.8
2022-09-15T12:43:51.752Z,67.1
2022-09-15T12:45:07.925Z,67.3
2022-09-15T12:46:24.129Z,67.5
2022-09-15T12:47:39.338Z,67.6
2022-09-15T12:48:55.518Z,67.7
2022-09-15T12:50:11.707Z,67.6
2022-09-15T12:51:27.890Z,67.4
2022-09-15T12:52:44.089Z,65.4
2022-09-15T12:54:00.270Z,64.6
2022-09-15T12:55:16.315Z,63.9
2022-09-15T12:56:32.642Z,63.6
2022-09-15T12:57:48.845Z,63.9
2022-09-15T12:59:05.024Z,62.6
2022-09-15T13:00:21.225Z,63.6
2022-09-15T13:01:37.269Z,64.6
2022-09-15T13:02:53.604Z,65.1
2022-09-15T13:04:08.649Z,65.6
2022-09-15T13:05:24.844Z,65.9
2022-09-15T13:06:41.185Z,66.2
2022-09-15T13:07:57.363Z,66.5
2022-09-15T13:09:13.566Z,66.6
2022-09-15T13:10:29.756Z,66.7
2022-09-15T13:11:45.786Z,66.7
2022-09-15T13:13:02.129Z,66.6
2022-09-15T13:14:18.324Z,65.9
2022-09-15T13:15:34.502Z,63.2
2022-09-15T13:16:50.692Z,63.1
2022-09-15T13:18:06.879Z,61.7
2022-09-15T13:19:23.075Z,60.4
2022-09-15T13:20:38.275Z,60.2
2022-09-15T13:21:54.469Z,60.8
2022-09-15T13:23:10.509Z,61.1
2022-09-15T13:24:26.853Z,61.5
2022-09-15T13:25:43.029Z,61.6
2022-09-15T13:26:59.065Z,59.4
2022-09-15T13:28:15.416Z,58.3
2022-09-15T13:29:31.607Z,59.6
2022-09-15T13:30:47.784Z,60.6
2022-09-15T13:32:03.978Z,61.9
2022-09-15T13:33:20.158Z,62.9
2022-09-15T13:34:36.349Z,63.5
2022-09-15T13:35:52.379Z,64
2022-09-15T13:37:07.761Z,64
2022-09-15T13:38:23.948Z,64
2022-09-15T13:39:39.962Z,64.3
2022-09-15T13:40:56.319Z,64.5
2022-09-15T13:42:12.509Z,64.8
2022-09-15T13:43:28.541Z,65.1
2022-09-15T13:44:44.896Z,65.3
2022-09-15T13:46:01.079Z,65.4
2022-09-15T13:47:17.260Z,65.5
2022-09-15T13:48:33.450Z,65.7
2022-09-15T13:49:49.643Z,65.9
2022-09-15T13:51:05.671Z,65.9
2022-09-15T13:52:21.862Z,65.9
2022-09-15T13:53:37.222Z,65.7
2022-09-15T13:54:53.425Z,64.7
2022-09-15T13:56:09.606Z,64.3
2022-09-15T13:57:25.792Z,64.3
2022-09-15T13:58:41.983Z,64.5
2022-09-15T13:59:58.173Z,64.5
2022-09-15T14:01:13.374Z,64.7
2022-09-15T14:02:29.556Z,65
2022-09-15T14:03:45.594Z,65.3
2022-09-15T14:05:01.930Z,65.6
2022-09-15T14:06:17.963Z,65.7
2022-09-15T14:07:34.317Z,65.9
2022-09-15T14:08:50.327Z,65.9
2022-09-15T14:10:06.691Z,65.9
2022-09-15T14:11:22.718Z,65.7
2022-09-15T14:12:39.058Z,65.6
2022-09-15T14:13:55.075Z,65.7
2022-09-15T14:15:11.444Z,65.8
2022-09-15T14:16:27.630Z,65.8
2022-09-15T14:17:42.659Z,65.8
2022-09-15T14:18:59.010Z,65.8
2022-09-15T14:20:15.205Z,65.8
2022-09-15T14:21:31.222Z,66
2022-09-15T14:22:47.575Z,66
2022-09-15T14:24:03.761Z,66.1
2022-09-15T14:25:19.956Z,66.3
2022-09-15T14:26:36.139Z,66.3
2022-09-15T14:27:52.330Z,66.4
2022-09-15T14:29:08.339Z,66.4
2022-09-15T14:30:24.538Z,66.4
2022-09-15T14:31:40.898Z,66.5
2022-09-15T14:32:57.079Z,66.5
2022-09-15T14:34:12.107Z,66.6
2022-09-15T14:35:28.476Z,66.7
2022-09-15T14:36:44.493Z,66.7
2022-09-15T14:38:00.843Z,66.7
2022-09-15T14:39:17.036Z,66.8
2022-09-15T14:40:33.215Z,66.9
2022-09-15T14:41:49.398Z,66.9
2022-09-15T14:43:05.588Z,66.3
2022-09-15T14:44:21.610Z,66.2
2022-09-15T14:45:37.970Z,66
2022-09-15T14:46:53.981Z,66.4
2022-09-15T14:48:10.334Z,66.7
2022-09-15T14:49:26.527Z,67
2022-09-15T14:50:41.737Z,67
2022-09-15T14:51:57.752Z,67.1
2022-09-15T14:53:14.105Z,67.1
2022-09-15T14:54:30.297Z,67.1
2022-09-15T14:55:46.476Z,67.1
2022-09-15T14:57:02.668Z,67
2022-09-15T14:58:18.863Z,67.1
2022-09-15T14:59:34.860Z,67
2022-09-15T15:00:51.238Z,66.8
2022-09-15T15:02:07.409Z,66.5
2022-09-15T15:03:23.612Z,66.5
2022-09-15T15:04:39.792Z,66.5
2022-09-15T15:05:55.979Z,66.5
2022-09-15T15:07:11.185Z,66.5
2022-09-15T15:08:27.194Z,66.2
2022-09-15T15:09:43.557Z,66.6
2022-09-15T15:10:59.745Z,66.8
2022-09-15T15:12:15.761Z,66.8
2022-09-15T15:13:32.113Z,66.7
2022-09-15T15:14:48.313Z,66.8
2022-09-15T15:16:04.487Z,66.8
2022-09-15T15:17:20.678Z,67
2022-09-15T15:18:36.868Z,67
2022-09-15T15:19:53.065Z,66.7
2022-09-15T15:21:09.242Z,66.9
2022-09-15T15:22:25.256Z,67
2022-09-15T15:23:40.644Z,67
2022-09-15T15:24:56.821Z,67.1
2022-09-15T15:26:13.016Z,67.1
2022-09-15T15:27:29.191Z,67
2022-09-15T15:28:45.387Z,66.8
2022-09-15T15:30:01.384Z,66.7
2022-09-15T15:31:17.760Z,66.8
2022-09-15T15:32:33.938Z,66.9
2022-09-15T15:33:50.136Z,66.8
2022-09-15T15:35:06.320Z,66.5
2022-09-15T15:36:22.509Z,66.5
2022-09-15T15:37:38.703Z,67
2022-09-15T15:38:54.890Z,67.2
2022-09-15T15:40:10.084Z,67.2
2022-09-15T15:41:26.276Z,67.2
2022-09-15T15:42:42.458Z,67.3
2022-09-15T15:43:58.655Z,67.3
2022-09-15T15:45:14.643Z,67.2
2022-09-15T15:46:31.027Z,67.4
2022-09-15T15:47:47.215Z,67.4
2022-09-15T15:49:03.404Z,67.4
2022-09-15T15:50:19.589Z,67.6
2022-09-15T15:51:35.780Z,67.7
2022-09-15T15:52:51.778Z,67.6
2022-09-15T15:54:08.140Z,67.6
2022-09-15T15:55:24.340Z,67.6
2022-09-15T15:56:39.350Z,67.7
2022-09-15T15:57:55.529Z,67.7
2022-09-15T15:59:11.908Z,67.8
2022-09-15T16:00:27.920Z,67.8
2022-09-15T16:01:44.281Z,67.8
2022-09-15T16:03:00.468Z,67.9
2022-09-15T16:04:16.661Z,67.9
2022-09-15T16:05:32.857Z,68.1
2022-09-15T16:06:49.030Z,68.1
2022-09-15T16:08:05.224Z,68.1
2022-09-15T16:09:21.409Z,68.2
2022-09-15T16:10:37.599Z,68.2
2022-09-15T16:11:53.793Z,68.3
2022-09-15T16:13:08.978Z,68.3
2022-09-15T16:14:25.175Z,68.3
2022-09-15T16:15:41.173Z,68.3
2022-09-15T16:16:57.558Z,68.3
2022-09-15T16:18:13.733Z,68.3
2022-09-15T16:19:29.738Z,68.3
2022-09-15T16:20:46.120Z,68.5
2022-09-15T16:22:02.294Z,68.6
2022-09-15T16:23:18.290Z,68.7
2022-09-15T16:24:34.474Z,68.7
2022-09-15T16:25:50.861Z,68.7
2022-09-15T16:27:07.039Z,68.6
2022-09-15T16:28:23.244Z,68.8
2022-09-15T16:29:38.000Z,68.8
2022-09-15T16:30:54.433Z,68.8
2022-09-15T16:32:10.821Z,68.7
2022-09-15T16:33:26.996Z,68.8
2022-09-15T16:34:43.190Z,68.8
2022-09-15T16:35:59.190Z,68.9
2022-09-15T16:37:15.367Z,68.8
2022-09-15T16:38:31.550Z,68.8
2022-09-15T16:39:47.944Z,68.9
2022-09-15T16:41:04.117Z,69
2022-09-15T16:42:20.303Z,69
2022-09-15T16:43:36.296Z,69.1
2022-09-15T16:44:52.691Z,69.2
2022-09-15T16:46:07.701Z,69
2022-09-15T16:47:24.081Z,69.2
2022-09-15T16:48:40.261Z,69.2
2022-09-15T16:49:56.452Z,69.3
2022-09-15T16:51:12.641Z,69.3
2022-09-15T16:52:28.833Z,69.4
2022-09-15T16:53:44.821Z,69.3
2022-09-15T16:55:01.200Z,69.4
2022-09-15T16:56:17.398Z,69.5
2022-09-15T16:57:33.574Z,69.4
2022-09-15T16:58:49.764Z,69.4
2022-09-15T17:00:05.950Z,69.6
2022-09-15T17:01:22.135Z,69.7
2022-09-15T17:02:37.140Z,69.7
2022-09-15T17:03:53.535Z,69.8
2022-09-15T17:05:09.728Z,69.8
2022-09-15T17:06:25.707Z,69.9
2022-09-15T17:07:42.095Z,70